sensor_id;sensor_type;location;lat;lon;timestamp;pressure;altitude;pressure_sealevel;temperature;humidity
9746;BME280;4912;50.836;12.958;2023-08-21T00:00:31;98377.53;;;26.06;86.38
9746;BME280;4912;50.836;12.958;2023-08-21T00:03:04;98375.41;;;25.99;87.03
9746;BME280;4912;50.836;12.958;2023-08-21T00:05:35;98376.38;;;26.01;86.46
9746;BME280;4912;50.836;12.958;2023-08-21T00:08:05;98377.16;;;26.02;86.92
9746;BME280;4912;50.836;12.958;2023-08-21T00:10:37;98370.91;;;26.03;86.22
9746;BME280;4912;50.836;12.958;2023-08-21T00:13:08;98368.63;;;26.02;86.90
9746;BME280;4912;50.836;12.958;2023-08-21T00:15:39;98376.94;;;26.00;86.48
9746;BME280;4912;50.836;12.958;2023-08-21T00:18:12;98369.56;;;25.97;86.52
9746;BME280;4912;50.836;12.958;2023-08-21T00:20:42;98368.03;;;25.96;87.10
9746;BME280;4912;50.836;12.958;2023-08-21T00:23:13;98363.88;;;25.97;87.40
9746;BME280;4912;50.836;12.958;2023-08-21T00:25:46;98371.81;;;25.91;87.68
9746;BME280;4912;50.836;12.958;2023-08-21T00:28:17;98378.91;;;25.77;88.29
9746;BME280;4912;50.836;12.958;2023-08-21T00:30:49;98372.78;;;25.65;88.94
9746;BME280;4912;50.836;12.958;2023-08-21T00:33:22;98370.91;;;25.67;89.05
9746;BME280;4912;50.836;12.958;2023-08-21T00:35:52;98381.28;;;25.65;90.03
9746;BME280;4912;50.836;12.958;2023-08-21T00:38:23;98373.00;;;25.67;89.61
9746;BME280;4912;50.836;12.958;2023-08-21T00:40:54;98372.41;;;25.68;88.76
9746;BME280;4912;50.836;12.958;2023-08-21T00:43:24;98373.94;;;25.69;88.53
9746;BME280;4912;50.836;12.958;2023-08-21T00:45:55;98376.97;;;25.72;89.04
9746;BME280;4912;50.836;12.958;2023-08-21T00:48:29;98375.06;;;25.66;89.57
9746;BME280;4912;50.836;12.958;2023-08-21T00:51:01;98378.81;;;25.61;90.41
9746;BME280;4912;50.836;12.958;2023-08-21T00:53:31;98377.97;;;25.53;90.40
9746;BME280;4912;50.836;12.958;2023-08-21T00:56:02;98372.31;;;25.53;91.18
9746;BME280;4912;50.836;12.958;2023-08-21T00:58:33;98371.00;;;25.54;91.40
9746;BME280;4912;50.836;12.958;2023-08-21T01:01:04;98369.69;;;25.55;91.30
9746;BME280;4912;50.836;12.958;2023-08-21T01:03:37;98375.84;;;25.67;90.08
9746;BME280;4912;50.836;12.958;2023-08-21T01:06:08;98370.91;;;25.67;90.30
9746;BME280;4912;50.836;12.958;2023-08-21T01:08:42;98376.16;;;25.63;90.28
9746;BME280;4912;50.836;12.958;2023-08-21T01:11:23;98374.25;;;25.58;90.98
9746;BME280;4912;50.836;12.958;2023-08-21T01:14:03;98367.00;;;25.50;91.65
9746;BME280;4912;50.836;12.958;2023-08-21T01:16:39;98360.91;;;25.46;91.52
9746;BME280;4912;50.836;12.958;2023-08-21T01:19:20;98367.34;;;25.46;91.65
9746;BME280;4912;50.836;12.958;2023-08-21T01:21:57;98357.47;;;25.40;92.26
9746;BME280;4912;50.836;12.958;2023-08-21T01:24:30;98352.16;;;25.36;92.70
9746;BME280;4912;50.836;12.958;2023-08-21T01:27:01;98358.94;;;25.33;92.71
9746;BME280;4912;50.836;12.958;2023-08-21T01:29:32;98355.41;;;25.40;92.49
9746;BME280;4912;50.836;12.958;2023-08-21T01:32:10;98360.88;;;25.38;92.21
9746;BME280;4912;50.836;12.958;2023-08-21T01:34:46;98364.19;;;25.29;92.27
9746;BME280;4912;50.836;12.958;2023-08-21T01:37:17;98362.44;;;25.18;92.67
9746;BME280;4912;50.836;12.958;2023-08-21T01:39:51;98370.00;;;25.23;93.06
9746;BME280;4912;50.836;12.958;2023-08-21T01:42:22;98364.56;;;25.25;92.91
9746;BME280;4912;50.836;12.958;2023-08-21T01:44:52;98370.56;;;25.22;93.06
9746;BME280;4912;50.836;12.958;2023-08-21T01:47:23;98367.19;;;25.23;93.08
9746;BME280;4912;50.836;12.958;2023-08-21T01:49:53;98368.16;;;25.26;92.80
9746;BME280;4912;50.836;12.958;2023-08-21T01:52:24;98360.41;;;25.26;92.66
9746;BME280;4912;50.836;12.958;2023-08-21T01:54:59;98364.13;;;25.21;92.92
9746;BME280;4912;50.836;12.958;2023-08-21T01:57:31;98357.75;;;25.21;92.88
9746;BME280;4912;50.836;12.958;2023-08-21T02:00:01;98354.91;;;25.21;93.07
9746;BME280;4912;50.836;12.958;2023-08-21T02:02:44;98355.78;;;25.16;92.25
9746;BME280;4912;50.836;12.958;2023-08-21T02:05:14;98363.66;;;25.10;92.72
9746;BME280;4912;50.836;12.958;2023-08-21T02:07:45;98354.44;;;25.09;92.75
9746;BME280;4912;50.836;12.958;2023-08-21T02:10:18;98351.03;;;25.11;93.47
9746;BME280;4912;50.836;12.958;2023-08-21T02:12:49;98361.75;;;25.05;93.77
9746;BME280;4912;50.836;12.958;2023-08-21T02:15:21;98353.06;;;25.03;93.69
9746;BME280;4912;50.836;12.958;2023-08-21T02:17:52;98363.47;;;25.08;92.52
9746;BME280;4912;50.836;12.958;2023-08-21T02:20:22;98357.59;;;25.06;92.88
9746;BME280;4912;50.836;12.958;2023-08-21T02:22:52;98356.66;;;25.03;93.26
9746;BME280;4912;50.836;12.958;2023-08-21T02:25:26;98349.88;;;25.06;93.09
9746;BME280;4912;50.836;12.958;2023-08-21T02:27:56;98355.91;;;25.03;93.16
9746;BME280;4912;50.836;12.958;2023-08-21T02:30:27;98345.88;;;25.02;92.73
9746;BME280;4912;50.836;12.958;2023-08-21T02:32:58;98348.28;;;24.98;92.67
9746;BME280;4912;50.836;12.958;2023-08-21T02:35:29;98349.03;;;24.98;92.65
9746;BME280;4912;50.836;12.958;2023-08-21T02:37:59;98349.19;;;24.93;93.08
9746;BME280;4912;50.836;12.958;2023-08-21T02:40:36;98355.97;;;24.90;92.84
9746;BME280;4912;50.836;12.958;2023-08-21T02:43:06;98356.97;;;24.79;93.55
9746;BME280;4912;50.836;12.958;2023-08-21T02:45:37;98356.50;;;24.67;94.83
9746;BME280;4912;50.836;12.958;2023-08-21T02:48:08;98348.75;;;24.68;94.91
9746;BME280;4912;50.836;12.958;2023-08-21T02:50:39;98359.50;;;24.69;94.80
9746;BME280;4912;50.836;12.958;2023-08-21T02:53:10;98359.72;;;24.71;94.57
9746;BME280;4912;50.836;12.958;2023-08-21T02:55:42;98361.53;;;24.61;95.65
9746;BME280;4912;50.836;12.958;2023-08-21T02:58:13;98365.13;;;24.62;95.33
9746;BME280;4912;50.836;12.958;2023-08-21T03:00:43;98362.41;;;24.56;96.23
9746;BME280;4912;50.836;12.958;2023-08-21T03:03:14;98361.53;;;24.61;95.67
9746;BME280;4912;50.836;12.958;2023-08-21T03:05:44;98356.19;;;24.58;95.42
9746;BME280;4912;50.836;12.958;2023-08-21T03:08:14;98361.22;;;24.52;95.90
9746;BME280;4912;50.836;12.958;2023-08-21T03:10:48;98357.97;;;24.47;96.10
9746;BME280;4912;50.836;12.958;2023-08-21T03:13:20;98360.47;;;24.51;96.38
9746;BME280;4912;50.836;12.958;2023-08-21T03:15:51;98367.63;;;24.52;95.52
9746;BME280;4912;50.836;12.958;2023-08-21T03:18:21;98368.75;;;24.49;95.64
9746;BME280;4912;50.836;12.958;2023-08-21T03:20:51;98362.66;;;24.45;96.16
9746;BME280;4912;50.836;12.958;2023-08-21T03:23:22;98353.97;;;24.43;96.03
9746;BME280;4912;50.836;12.958;2023-08-21T03:25:55;98365.84;;;24.41;96.28
9746;BME280;4912;50.836;12.958;2023-08-21T03:28:26;98366.81;;;24.44;96.03
9746;BME280;4912;50.836;12.958;2023-08-21T03:30:56;98359.19;;;24.39;96.35
9746;BME280;4912;50.836;12.958;2023-08-21T03:33:29;98363.56;;;24.40;95.55
9746;BME280;4912;50.836;12.958;2023-08-21T03:35:59;98373.78;;;24.43;94.74
9746;BME280;4912;50.836;12.958;2023-08-21T03:38:30;98371.16;;;24.45;94.07
9746;BME280;4912;50.836;12.958;2023-08-21T03:41:03;98372.47;;;24.44;94.51
9746;BME280;4912;50.836;12.958;2023-08-21T03:43:35;98375.84;;;24.42;94.28
9746;BME280;4912;50.836;12.958;2023-08-21T03:46:05;98378.13;;;24.44;94.26
9746;BME280;4912;50.836;12.958;2023-08-21T03:48:36;98377.91;;;24.42;94.32
9746;BME280;4912;50.836;12.958;2023-08-21T03:51:06;98373.56;;;24.41;94.28
9746;BME280;4912;50.836;12.958;2023-08-21T03:53:37;98378.03;;;24.36;94.92
9746;BME280;4912;50.836;12.958;2023-08-21T03:56:10;98381.75;;;24.31;95.39
9746;BME280;4912;50.836;12.958;2023-08-21T03:58:40;98374.03;;;24.32;95.64
9746;BME280;4912;50.836;12.958;2023-08-21T04:01:10;98382.44;;;24.24;95.73
9746;BME280;4912;50.836;12.958;2023-08-21T04:03:41;98382.06;;;24.28;95.77
9746;BME280;4912;50.836;12.958;2023-08-21T04:06:12;98390.25;;;24.31;95.38
9746;BME280;4912;50.836;12.958;2023-08-21T04:08:42;98379.88;;;24.34;94.73
9746;BME280;4912;50.836;12.958;2023-08-21T04:11:16;98385.34;;;24.32;94.75
9746;BME280;4912;50.836;12.958;2023-08-21T04:13:46;98380.47;;;24.32;95.02
9746;BME280;4912;50.836;12.958;2023-08-21T04:16:17;98381.88;;;24.26;95.58
9746;BME280;4912;50.836;12.958;2023-08-21T04:18:48;98381.78;;;24.05;97.03
9746;BME280;4912;50.836;12.958;2023-08-21T04:21:19;98373.63;;;24.01;97.47
9746;BME280;4912;50.836;12.958;2023-08-21T04:23:51;98378.00;;;24.02;97.36
9746;BME280;4912;50.836;12.958;2023-08-21T04:26:24;98376.34;;;24.07;96.95
9746;BME280;4912;50.836;12.958;2023-08-21T04:28:55;98375.03;;;24.08;96.34
9746;BME280;4912;50.836;12.958;2023-08-21T04:31:25;98380.47;;;24.06;96.37
9746;BME280;4912;50.836;12.958;2023-08-21T04:33:56;98386.66;;;24.04;96.42
9746;BME280;4912;50.836;12.958;2023-08-21T04:36:27;98375.59;;;24.06;96.88
9746;BME280;4912;50.836;12.958;2023-08-21T04:38:58;98380.56;;;24.14;96.04
9746;BME280;4912;50.836;12.958;2023-08-21T04:41:31;98383.94;;;24.12;96.71
9746;BME280;4912;50.836;12.958;2023-08-21T04:44:06;98389.38;;;24.10;96.54
9746;BME280;4912;50.836;12.958;2023-08-21T04:46:36;98379.94;;;24.07;96.99
9746;BME280;4912;50.836;12.958;2023-08-21T04:49:07;98390.81;;;24.03;97.08
9746;BME280;4912;50.836;12.958;2023-08-21T04:51:37;98386.66;;;24.04;97.68
9746;BME280;4912;50.836;12.958;2023-08-21T04:54:07;98392.66;;;24.01;98.83
9746;BME280;4912;50.836;12.958;2023-08-21T04:56:41;98386.47;;;24.02;98.50
9746;BME280;4912;50.836;12.958;2023-08-21T04:59:13;98395.72;;;24.03;97.94
9746;BME280;4912;50.836;12.958;2023-08-21T05:01:43;98389.19;;;24.08;98.28
9746;BME280;4912;50.836;12.958;2023-08-21T05:04:14;98388.50;;;24.15;98.44
9746;BME280;4912;50.836;12.958;2023-08-21T05:06:46;98391.31;;;24.15;98.26
9746;BME280;4912;50.836;12.958;2023-08-21T05:09:16;98394.38;;;24.17;98.80
9746;BME280;4912;50.836;12.958;2023-08-21T05:11:49;98402.00;;;24.22;98.39
9746;BME280;4912;50.836;12.958;2023-08-21T05:14:20;98399.50;;;24.32;98.01
9746;BME280;4912;50.836;12.958;2023-08-21T05:16:50;98402.97;;;24.38;98.62
9746;BME280;4912;50.836;12.958;2023-08-21T05:19:20;98398.13;;;24.46;98.63
9746;BME280;4912;50.836;12.958;2023-08-21T05:21:54;98403.88;;;24.54;98.17
9746;BME280;4912;50.836;12.958;2023-08-21T05:24:25;98405.72;;;24.51;96.63
9746;BME280;4912;50.836;12.958;2023-08-21T05:27:04;98405.72;;;24.51;96.79
9746;BME280;4912;50.836;12.958;2023-08-21T05:29:35;98407.75;;;24.64;96.51
9746;BME280;4912;50.836;12.958;2023-08-21T05:32:06;98405.22;;;24.73;96.95
9746;BME280;4912;50.836;12.958;2023-08-21T05:34:36;98409.09;;;24.83;96.76
9746;BME280;4912;50.836;12.958;2023-08-21T05:37:07;98409.41;;;24.93;96.93
9746;BME280;4912;50.836;12.958;2023-08-21T05:39:38;98407.19;;;24.99;95.10
9746;BME280;4912;50.836;12.958;2023-08-21T05:42:11;98407.47;;;25.09;95.09
9746;BME280;4912;50.836;12.958;2023-08-21T05:44:42;98408.72;;;25.21;94.75
9746;BME280;4912;50.836;12.958;2023-08-21T05:47:13;98400.88;;;25.35;94.33
9746;BME280;4912;50.836;12.958;2023-08-21T05:49:44;98403.91;;;25.57;93.24
9746;BME280;4912;50.836;12.958;2023-08-21T05:52:15;98406.66;;;25.71;91.77
9746;BME280;4912;50.836;12.958;2023-08-21T05:54:46;98414.06;;;25.81;90.65
9746;BME280;4912;50.836;12.958;2023-08-21T05:57:19;98418.69;;;25.92;90.22
9746;BME280;4912;50.836;12.958;2023-08-21T05:59:51;98416.03;;;25.94;89.86
9746;BME280;4912;50.836;12.958;2023-08-21T06:02:21;98410.03;;;26.05;89.01
9746;BME280;4912;50.836;12.958;2023-08-21T06:04:52;98414.63;;;26.16;89.36
9746;BME280;4912;50.836;12.958;2023-08-21T06:07:23;98410.53;;;26.24;89.23
9746;BME280;4912;50.836;12.958;2023-08-21T06:09:54;98410.16;;;26.28;87.96
9746;BME280;4912;50.836;12.958;2023-08-21T06:12:27;98410.94;;;26.28;87.76
9746;BME280;4912;50.836;12.958;2023-08-21T06:14:58;98399.81;;;26.45;86.20
9746;BME280;4912;50.836;12.958;2023-08-21T06:17:28;98404.59;;;26.58;86.34
9746;BME280;4912;50.836;12.958;2023-08-21T06:19:59;98400.06;;;26.63;84.89
9746;BME280;4912;50.836;12.958;2023-08-21T06:22:30;98396.91;;;26.74;85.87
9746;BME280;4912;50.836;12.958;2023-08-21T06:25:00;98394.63;;;26.87;85.80
9746;BME280;4912;50.836;12.958;2023-08-21T06:27:34;98397.72;;;26.97;84.75
9746;BME280;4912;50.836;12.958;2023-08-21T06:30:24;98399.63;;;27.25;83.78
9746;BME280;4912;50.836;12.958;2023-08-21T06:32:55;98405.47;;;27.35;82.36
9746;BME280;4912;50.836;12.958;2023-08-21T06:35:27;98402.44;;;27.48;81.57
9746;BME280;4912;50.836;12.958;2023-08-21T06:37:57;98408.50;;;27.67;80.53
9746;BME280;4912;50.836;12.958;2023-08-21T06:40:27;98411.16;;;27.80;79.92
9746;BME280;4912;50.836;12.958;2023-08-21T06:43:01;98414.75;;;27.65;79.80
9746;BME280;4912;50.836;12.958;2023-08-21T06:45:34;98415.34;;;27.56;79.56
9746;BME280;4912;50.836;12.958;2023-08-21T06:48:04;98415.31;;;27.64;79.07
9746;BME280;4912;50.836;12.958;2023-08-21T06:50:37;98416.28;;;27.66;78.54
9746;BME280;4912;50.836;12.958;2023-08-21T06:53:07;98413.81;;;27.78;78.64
9746;BME280;4912;50.836;12.958;2023-08-21T06:55:38;98414.72;;;27.81;78.58
9746;BME280;4912;50.836;12.958;2023-08-21T06:58:11;98408.31;;;27.80;78.56
9746;BME280;4912;50.836;12.958;2023-08-21T07:00:42;98413.41;;;27.82;77.94
9746;BME280;4912;50.836;12.958;2023-08-21T07:03:12;98417.69;;;28.05;76.73
9746;BME280;4912;50.836;12.958;2023-08-21T07:05:46;98412.56;;;28.19;75.83
9746;BME280;4912;50.836;12.958;2023-08-21T07:08:17;98409.84;;;28.36;75.31
9746;BME280;4912;50.836;12.958;2023-08-21T07:10:48;98422.13;;;28.46;74.23
9746;BME280;4912;50.836;12.958;2023-08-21T07:13:21;98423.34;;;28.68;73.78
9746;BME280;4912;50.836;12.958;2023-08-21T07:15:53;98420.63;;;28.85;72.88
9746;BME280;4912;50.836;12.958;2023-08-21T07:18:24;98425.22;;;29.06;72.53
9746;BME280;4912;50.836;12.958;2023-08-21T07:20:55;98423.75;;;29.22;71.67
9746;BME280;4912;50.836;12.958;2023-08-21T07:23:25;98428.13;;;29.23;71.09
9746;BME280;4912;50.836;12.958;2023-08-21T07:25:57;98434.63;;;28.91;72.43
9746;BME280;4912;50.836;12.958;2023-08-21T07:28:30;98435.28;;;29.07;71.70
9746;BME280;4912;50.836;12.958;2023-08-21T07:31:01;98435.25;;;29.14;71.79
9746;BME280;4912;50.836;12.958;2023-08-21T07:33:31;98435.09;;;29.37;71.61
9746;BME280;4912;50.836;12.958;2023-08-21T07:36:04;98432.31;;;29.71;71.60
9746;BME280;4912;50.836;12.958;2023-08-21T07:38:35;98434.84;;;29.85;70.32
9746;BME280;4912;50.836;12.958;2023-08-21T07:41:07;98437.22;;;29.96;70.69
9746;BME280;4912;50.836;12.958;2023-08-21T07:43:42;98437.16;;;30.03;71.25
9746;BME280;4912;50.836;12.958;2023-08-21T07:46:13;98445.03;;;30.13;71.59
9746;BME280;4912;50.836;12.958;2023-08-21T07:52:26;98447.38;;;30.41;68.00
9746;BME280;4912;50.836;12.958;2023-08-21T07:54:56;98451.06;;;30.34;68.18
9746;BME280;4912;50.836;12.958;2023-08-21T07:57:28;98458.72;;;30.48;69.13
9746;BME280;4912;50.836;12.958;2023-08-21T08:00:01;98452.66;;;30.62;66.69
9746;BME280;4912;50.836;12.958;2023-08-21T08:02:39;98448.41;;;30.80;65.65
9746;BME280;4912;50.836;12.958;2023-08-21T08:05:10;98452.81;;;31.08;65.82
9746;BME280;4912;50.836;12.958;2023-08-21T08:07:40;98448.56;;;31.36;65.58
9746;BME280;4912;50.836;12.958;2023-08-21T08:10:11;98452.00;;;31.70;63.77
9746;BME280;4912;50.836;12.958;2023-08-21T08:12:42;98459.44;;;32.02;62.84
9746;BME280;4912;50.836;12.958;2023-08-21T08:15:15;98450.44;;;32.35;59.14
9746;BME280;4912;50.836;12.958;2023-08-21T08:17:46;98448.47;;;32.57;58.03
9746;BME280;4912;50.836;12.958;2023-08-21T08:20:19;98448.94;;;33.22;58.91
9746;BME280;4912;50.836;12.958;2023-08-21T08:22:50;98453.19;;;33.83;54.35
9746;BME280;4912;50.836;12.958;2023-08-21T08:25:20;98460.31;;;34.25;52.43
9746;BME280;4912;50.836;12.958;2023-08-21T08:27:51;98450.56;;;34.84;50.76
9746;BME280;4912;50.836;12.958;2023-08-21T08:30:24;98457.78;;;35.64;49.20
9746;BME280;4912;50.836;12.958;2023-08-21T08:32:55;98458.59;;;36.13;46.84
9746;BME280;4912;50.836;12.958;2023-08-21T08:35:25;98454.94;;;36.62;45.73
9746;BME280;4912;50.836;12.958;2023-08-21T08:37:56;98458.72;;;37.42;44.50
9746;BME280;4912;50.836;12.958;2023-08-21T08:40:26;98447.88;;;37.82;42.29
9746;BME280;4912;50.836;12.958;2023-08-21T08:42:57;98442.59;;;37.78;42.37
9746;BME280;4912;50.836;12.958;2023-08-21T08:45:32;98450.31;;;37.74;43.28
9746;BME280;4912;50.836;12.958;2023-08-21T08:48:04;98446.03;;;38.45;42.23
9746;BME280;4912;50.836;12.958;2023-08-21T08:50:37;98443.22;;;39.06;41.43
9746;BME280;4912;50.836;12.958;2023-08-21T08:53:10;98448.19;;;39.19;39.40
9746;BME280;4912;50.836;12.958;2023-08-21T08:55:43;98449.03;;;39.21;39.26
9746;BME280;4912;50.836;12.958;2023-08-21T08:58:14;98451.28;;;39.39;38.84
9746;BME280;4912;50.836;12.958;2023-08-21T09:00:47;98451.47;;;39.43;37.84
9746;BME280;4912;50.836;12.958;2023-08-21T09:03:18;98452.59;;;39.36;38.46
9746;BME280;4912;50.836;12.958;2023-08-21T09:05:48;98450.19;;;38.13;40.20
9746;BME280;4912;50.836;12.958;2023-08-21T09:08:19;98446.78;;;38.45;39.58
9746;BME280;4912;50.836;12.958;2023-08-21T09:10:50;98440.94;;;38.30;39.87
9746;BME280;4912;50.836;12.958;2023-08-21T09:13:21;98450.28;;;36.68;44.41
9746;BME280;4912;50.836;12.958;2023-08-21T09:15:55;98450.78;;;35.91;46.18
9746;BME280;4912;50.836;12.958;2023-08-21T09:18:26;98451.22;;;36.10;47.05
9746;BME280;4912;50.836;12.958;2023-08-21T09:20:57;98448.94;;;37.61;41.86
9746;BME280;4912;50.836;12.958;2023-08-21T09:23:28;98449.75;;;38.18;39.07
9746;BME280;4912;50.836;12.958;2023-08-21T09:25:58;98453.44;;;38.48;37.64
9746;BME280;4912;50.836;12.958;2023-08-21T09:28:31;98446.66;;;38.57;37.66
9746;BME280;4912;50.836;12.958;2023-08-21T09:31:04;98437.91;;;39.16;37.94
9746;BME280;4912;50.836;12.958;2023-08-21T09:33:35;98444.22;;;38.38;40.21
9746;BME280;4912;50.836;12.958;2023-08-21T09:36:05;98446.22;;;38.06;40.29
9746;BME280;4912;50.836;12.958;2023-08-21T09:38:38;98441.16;;;39.08;36.71
9746;BME280;4912;50.836;12.958;2023-08-21T09:41:09;98442.66;;;39.72;37.01
9746;BME280;4912;50.836;12.958;2023-08-21T09:43:41;98442.22;;;40.11;36.90
9746;BME280;4912;50.836;12.958;2023-08-21T09:46:17;98437.22;;;40.47;36.07
9746;BME280;4912;50.836;12.958;2023-08-21T09:48:54;98428.72;;;40.53;35.26
9746;BME280;4912;50.836;12.958;2023-08-21T09:51:26;98442.09;;;40.78;35.16
9746;BME280;4912;50.836;12.958;2023-08-21T09:53:57;98435.78;;;40.83;32.72
9746;BME280;4912;50.836;12.958;2023-08-21T09:56:31;98428.28;;;40.76;33.22
9746;BME280;4912;50.836;12.958;2023-08-21T09:59:03;98426.63;;;40.20;34.05
9746;BME280;4912;50.836;12.958;2023-08-21T10:01:38;98415.22;;;40.42;34.42
9746;BME280;4912;50.836;12.958;2023-08-21T10:04:10;98423.44;;;40.65;34.06
9746;BME280;4912;50.836;12.958;2023-08-21T10:06:42;98428.41;;;40.63;34.85
9746;BME280;4912;50.836;12.958;2023-08-21T10:09:14;98432.63;;;40.95;33.45
9746;BME280;4912;50.836;12.958;2023-08-21T10:11:45;98422.47;;;39.74;33.11
9746;BME280;4912;50.836;12.958;2023-08-21T10:14:16;98416.13;;;39.62;34.10
9746;BME280;4912;50.836;12.958;2023-08-21T10:16:50;98413.22;;;40.11;34.08
9746;BME280;4912;50.836;12.958;2023-08-21T10:19:21;98416.56;;;40.21;32.85
9746;BME280;4912;50.836;12.958;2023-08-21T10:21:55;98414.16;;;40.51;34.33
9746;BME280;4912;50.836;12.958;2023-08-21T10:24:27;98410.75;;;40.39;34.19
9746;BME280;4912;50.836;12.958;2023-08-21T10:26:59;98417.09;;;39.04;36.03
9746;BME280;4912;50.836;12.958;2023-08-21T10:29:29;98413.22;;;39.62;35.77
9746;BME280;4912;50.836;12.958;2023-08-21T10:32:05;98414.47;;;40.24;34.29
9746;BME280;4912;50.836;12.958;2023-08-21T10:34:37;98409.94;;;40.54;33.79
9746;BME280;4912;50.836;12.958;2023-08-21T10:37:09;98412.50;;;40.81;32.38
9746;BME280;4912;50.836;12.958;2023-08-21T10:39:54;98415.06;;;40.91;32.68
9746;BME280;4912;50.836;12.958;2023-08-21T10:42:38;98408.66;;;40.95;32.43
9746;BME280;4912;50.836;12.958;2023-08-21T10:45:11;98401.66;;;41.02;32.66
9746;BME280;4912;50.836;12.958;2023-08-21T10:47:44;98395.31;;;41.25;31.20
9746;BME280;4912;50.836;12.958;2023-08-21T10:50:17;98398.97;;;40.88;33.58
9746;BME280;4912;50.836;12.958;2023-08-21T10:52:51;98391.84;;;40.20;33.95
9746;BME280;4912;50.836;12.958;2023-08-21T10:55:22;98392.56;;;40.92;33.47
9746;BME280;4912;50.836;12.958;2023-08-21T10:57:52;98391.31;;;41.34;31.52
9746;BME280;4912;50.836;12.958;2023-08-21T11:00:23;98382.34;;;41.67;31.68
9746;BME280;4912;50.836;12.958;2023-08-21T11:02:56;98384.53;;;42.08;31.77
9746;BME280;4912;50.836;12.958;2023-08-21T11:05:27;98380.22;;;42.31;30.97
9746;BME280;4912;50.836;12.958;2023-08-21T11:07:57;98382.41;;;41.89;31.82
9746;BME280;4912;50.836;12.958;2023-08-21T11:10:30;98382.16;;;42.03;31.50
9746;BME280;4912;50.836;12.958;2023-08-21T11:13:01;98390.53;;;40.76;32.52
9746;BME280;4912;50.836;12.958;2023-08-21T11:15:32;98383.59;;;39.79;33.37
9746;BME280;4912;50.836;12.958;2023-08-21T11:18:05;98391.84;;;39.06;35.64
9746;BME280;4912;50.836;12.958;2023-08-21T11:20:36;98389.69;;;38.46;36.73
9746;BME280;4912;50.836;12.958;2023-08-21T11:23:09;98385.16;;;37.70;38.49
9746;BME280;4912;50.836;12.958;2023-08-21T11:25:40;98381.00;;;38.46;37.43
9746;BME280;4912;50.836;12.958;2023-08-21T11:28:16;98376.16;;;40.09;34.83
9746;BME280;4912;50.836;12.958;2023-08-21T11:30:46;98378.31;;;41.37;33.27
9746;BME280;4912;50.836;12.958;2023-08-21T11:33:20;98371.69;;;42.16;31.99
9746;BME280;4912;50.836;12.958;2023-08-21T11:35:51;98368.53;;;42.75;30.84
9746;BME280;4912;50.836;12.958;2023-08-21T11:38:23;98369.97;;;43.49;29.91
9746;BME280;4912;50.836;12.958;2023-08-21T11:40:56;98360.00;;;43.07;28.66
9746;BME280;4912;50.836;12.958;2023-08-21T11:43:35;98375.69;;;42.96;29.55
9746;BME280;4912;50.836;12.958;2023-08-21T11:46:07;98375.00;;;42.06;29.69
9746;BME280;4912;50.836;12.958;2023-08-21T11:48:44;98369.41;;;41.71;30.63
9746;BME280;4912;50.836;12.958;2023-08-21T11:51:15;98373.59;;;40.71;31.71
9746;BME280;4912;50.836;12.958;2023-08-21T11:53:47;98373.75;;;39.70;33.10
9746;BME280;4912;50.836;12.958;2023-08-21T11:56:18;98369.44;;;39.87;33.88
9746;BME280;4912;50.836;12.958;2023-08-21T11:58:50;98358.09;;;41.59;31.12
9746;BME280;4912;50.836;12.958;2023-08-21T12:01:21;98373.81;;;41.52;31.24
9746;BME280;4912;50.836;12.958;2023-08-21T12:03:55;98366.13;;;40.13;32.37
9746;BME280;4912;50.836;12.958;2023-08-21T12:06:25;98360.00;;;41.13;31.69
9746;BME280;4912;50.836;12.958;2023-08-21T12:09:00;98360.16;;;42.20;30.06
9746;BME280;4912;50.836;12.958;2023-08-21T12:11:31;98359.75;;;41.86;29.71
9746;BME280;4912;50.836;12.958;2023-08-21T12:14:02;98367.00;;;41.25;31.10
9746;BME280;4912;50.836;12.958;2023-08-21T12:16:33;98364.38;;;40.94;30.10
9746;BME280;4912;50.836;12.958;2023-08-21T12:19:06;98364.50;;;39.74;30.16
9746;BME280;4912;50.836;12.958;2023-08-21T12:21:39;98361.34;;;40.37;30.03
9746;BME280;4912;50.836;12.958;2023-08-21T12:24:09;98356.88;;;41.66;28.31
9746;BME280;4912;50.836;12.958;2023-08-21T12:26:40;98356.13;;;41.06;29.04
9746;BME280;4912;50.836;12.958;2023-08-21T12:29:17;98351.25;;;41.72;27.89
9746;BME280;4912;50.836;12.958;2023-08-21T12:31:47;98343.97;;;42.58;26.50
9746;BME280;4912;50.836;12.958;2023-08-21T12:34:21;98346.19;;;43.57;26.32
9746;BME280;4912;50.836;12.958;2023-08-21T12:36:51;98344.91;;;43.64;25.77
9746;BME280;4912;50.836;12.958;2023-08-21T12:39:22;98345.28;;;43.50;26.04
9746;BME280;4912;50.836;12.958;2023-08-21T12:41:52;98335.81;;;44.05;25.25
9746;BME280;4912;50.836;12.958;2023-08-21T12:44:23;98342.97;;;42.97;26.08
9746;BME280;4912;50.836;12.958;2023-08-21T12:46:53;98339.94;;;42.45;27.29
9746;BME280;4912;50.836;12.958;2023-08-21T12:49:26;98332.53;;;42.88;26.49
9746;BME280;4912;50.836;12.958;2023-08-21T12:51:57;98331.66;;;41.73;30.01
9746;BME280;4912;50.836;12.958;2023-08-21T12:54:27;98343.63;;;41.21;30.70
9746;BME280;4912;50.836;12.958;2023-08-21T12:56:58;98344.38;;;40.47;30.40
9746;BME280;4912;50.836;12.958;2023-08-21T12:59:28;98349.22;;;41.35;29.23
9746;BME280;4912;50.836;12.958;2023-08-21T13:01:59;98347.25;;;40.82;30.02
9746;BME280;4912;50.836;12.958;2023-08-21T13:04:34;98350.47;;;39.51;30.57
9746;BME280;4912;50.836;12.958;2023-08-21T13:07:05;98355.78;;;38.62;32.53
9746;BME280;4912;50.836;12.958;2023-08-21T13:09:35;98354.59;;;39.14;33.42
9746;BME280;4912;50.836;12.958;2023-08-21T13:12:06;98345.09;;;41.42;31.76
9746;BME280;4912;50.836;12.958;2023-08-21T13:14:37;98351.44;;;41.37;29.73
9746;BME280;4912;50.836;12.958;2023-08-21T13:17:08;98348.50;;;40.42;31.44
9746;BME280;4912;50.836;12.958;2023-08-21T13:19:41;98351.47;;;39.57;33.24
9746;BME280;4912;50.836;12.958;2023-08-21T13:22:11;98354.38;;;39.57;32.91
9746;BME280;4912;50.836;12.958;2023-08-21T13:24:42;98344.91;;;40.79;32.07
9746;BME280;4912;50.836;12.958;2023-08-21T13:27:13;98342.88;;;41.21;30.94
9746;BME280;4912;50.836;12.958;2023-08-21T13:29:45;98338.19;;;41.93;30.02
9746;BME280;4912;50.836;12.958;2023-08-21T13:32:16;98333.09;;;43.08;28.07
9746;BME280;4912;50.836;12.958;2023-08-21T13:34:50;98326.94;;;44.01;26.69
9746;BME280;4912;50.836;12.958;2023-08-21T13:37:20;98322.91;;;44.76;25.64